createdAt,value
2019-05-11T00:01:59.673Z,99.90
2019-05-11T00:04:28.700Z,99.90
2019-05-11T00:06:57.746Z,99.90
2019-05-11T00:09:26.780Z,99.90
2019-05-11T00:11:55.819Z,99.90
2019-05-11T00:14:24.850Z,99.90
2019-05-11T00:16:53.961Z,99.90
2019-05-11T00:19:23.057Z,99.90
2019-05-11T00:21:52.092Z,99.90
2019-05-11T00:24:21.123Z,99.90
2019-05-11T00:26:50.231Z,99.90
2019-05-11T00:29:19.272Z,99.90
2019-05-11T00:31:48.322Z,99.90
2019-05-11T00:34:17.413Z,99.90
2019-05-11T00:36:46.451Z,99.90
2019-05-11T00:39:15.501Z,99.90
2019-05-11T00:41:44.628Z,99.90
2019-05-11T00:44:13.735Z,99.90
2019-05-11T00:46:42.780Z,99.90
2019-05-11T00:49:11.820Z,99.90
2019-05-11T00:51:40.932Z,99.90
2019-05-11T00:54:10.095Z,99.90
2019-05-11T00:56:39.160Z,99.90
2019-05-11T00:59:21.010Z,99.90
2019-05-11T01:01:39.035Z,99.90
2019-05-11T01:04:08.096Z,99.90
2019-05-11T01:06:37.182Z,99.90
2019-05-11T01:09:07.704Z,99.90
2019-05-11T01:11:36.753Z,99.90
2019-05-11T01:14:05.792Z,99.90
2019-05-11T01:16:34.911Z,99.90
2019-05-11T01:19:03.963Z,99.90
2019-05-11T01:21:33.003Z,99.90
2019-05-11T01:24:02.038Z,99.90
2019-05-11T01:26:31.135Z,99.90
2019-05-11T01:29:00.173Z,99.90
2019-05-11T01:31:29.272Z,99.90
2019-05-11T01:33:58.318Z,99.90
2019-05-11T01:36:27.345Z,99.90
2019-05-11T01:38:56.385Z,99.90
2019-05-11T01:41:25.431Z,99.90
2019-05-11T01:43:54.497Z,99.90
2019-05-11T01:46:23.560Z,99.90
2019-05-11T01:48:52.604Z,99.90
2019-05-11T01:51:21.644Z,99.90
2019-05-11T01:53:50.692Z,99.90
2019-05-11T01:56:19.729Z,99.90
2019-05-11T01:58:48.780Z,99.90
2019-05-11T02:01:17.804Z,99.90
2019-05-11T02:03:46.867Z,99.90
2019-05-11T02:06:15.908Z,99.90
2019-05-11T02:08:44.945Z,99.90
2019-05-11T02:11:16.183Z,99.90
2019-05-11T02:13:44.752Z,99.90
2019-05-11T02:16:13.853Z,99.90
2019-05-11T02:18:42.900Z,99.90
2019-05-11T02:21:11.938Z,99.90
2019-05-11T02:23:40.984Z,99.90
2019-05-11T02:26:10.120Z,99.90
2019-05-11T02:28:39.153Z,99.90
2019-05-11T02:31:08.270Z,99.90
2019-05-11T02:33:37.321Z,99.90
2019-05-11T02:36:06.448Z,99.90
2019-05-11T02:38:35.509Z,99.90
2019-05-11T02:41:04.608Z,99.90
2019-05-11T02:43:33.745Z,99.90
2019-05-11T02:46:02.986Z,99.90
2019-05-11T02:48:32.026Z,99.90
2019-05-11T02:51:01.256Z,99.90
2019-05-11T02:53:32.716Z,99.90
2019-05-11T02:56:01.844Z,99.90
2019-05-11T02:58:30.900Z,99.90
2019-05-11T03:01:00.011Z,99.90
2019-05-11T03:03:29.058Z,99.90
2019-05-11T03:05:58.120Z,99.90
2019-05-11T03:08:27.147Z,99.90
2019-05-11T03:10:56.203Z,99.90
2019-05-11T03:13:25.295Z,99.90
2019-05-11T03:15:54.338Z,99.90
2019-05-11T03:18:23.366Z,99.90
2019-05-11T03:20:52.402Z,99.90
2019-05-11T03:23:21.429Z,99.90
2019-05-11T03:25:50.466Z,99.90
2019-05-11T03:28:19.540Z,99.90
2019-05-11T03:30:48.573Z,99.90
2019-05-11T03:33:17.624Z,99.90
2019-05-11T03:35:46.856Z,99.90
2019-05-11T03:38:16.290Z,99.90
2019-05-11T03:40:45.385Z,99.90
2019-05-11T03:43:14.444Z,99.90
2019-05-11T03:45:43.535Z,99.90
2019-05-11T03:48:12.664Z,99.90
2019-05-11T03:50:41.760Z,99.90
2019-05-11T03:53:10.803Z,99.90
2019-05-11T03:55:39.834Z,99.90
2019-05-11T03:58:10.404Z,99.90
2019-05-11T04:00:39.438Z,99.90
2019-05-11T04:03:08.503Z,99.90
2019-05-11T04:05:37.692Z,99.90
2019-05-11T04:08:06.722Z,99.90
2019-05-11T04:10:35.965Z,99.90
2019-05-11T04:13:05.029Z,99.90
2019-05-11T04:15:34.062Z,99.90
2019-05-11T04:18:03.113Z,99.90
2019-05-11T04:20:32.209Z,99.90
2019-05-11T04:23:01.241Z,99.90
2019-05-11T04:25:30.333Z,99.90
2019-05-11T04:27:59.392Z,99.90
2019-05-11T04:30:28.443Z,99.90
2019-05-11T04:32:57.479Z,99.90
2019-05-11T04:35:26.593Z,99.90
2019-05-11T04:37:55.690Z,99.90
2019-05-11T04:40:24.741Z,99.90
2019-05-11T04:42:55.983Z,99.90
2019-05-11T04:45:24.677Z,99.90
2019-05-11T04:47:53.723Z,99.90
2019-05-11T04:50:22.761Z,99.90
2019-05-11T04:52:51.972Z,99.90
2019-05-11T04:55:21.324Z,99.90
2019-05-11T04:57:50.348Z,99.90
2019-05-11T05:00:19.549Z,99.90
2019-05-11T05:02:48.584Z,99.90
2019-05-11T05:05:17.646Z,99.90
2019-05-11T05:07:48.865Z,99.90
2019-05-11T05:10:20.036Z,99.90
2019-05-11T05:12:51.405Z,99.90
2019-05-11T05:15:18.982Z,99.90
2019-05-11T05:17:48.045Z,99.90
2019-05-11T05:20:17.254Z,99.90
2019-05-11T05:22:46.289Z,99.90
2019-05-11T05:25:15.435Z,99.90
2019-05-11T05:27:44.528Z,99.90
2019-05-11T05:30:13.739Z,99.90
2019-05-11T05:32:42.849Z,99.90
2019-05-11T05:35:11.965Z,99.90
2019-05-11T05:37:41.027Z,99.90
2019-05-11T05:40:10.103Z,99.90
2019-05-11T05:42:39.273Z,99.90
2019-05-11T05:45:08.621Z,99.90
2019-05-11T05:47:37.732Z,99.90
2019-05-11T05:50:07.433Z,99.90
2019-05-11T05:52:36.533Z,99.90
2019-05-11T05:55:06.727Z,99.90
2019-05-11T05:57:35.820Z,99.90
2019-05-11T06:00:05.696Z,99.90
2019-05-11T06:02:34.761Z,99.90
2019-05-11T06:05:05.707Z,99.90
2019-05-11T06:07:34.823Z,99.90
2019-05-11T06:10:06.358Z,99.90
2019-05-11T06:12:35.453Z,99.90
2019-05-11T06:15:07.637Z,99.90
2019-05-11T06:17:36.675Z,99.90
2019-05-11T06:20:06.696Z,99.90
2019-05-11T06:22:36.010Z,99.90
2019-05-11T06:25:06.181Z,97.60
2019-05-11T06:27:35.231Z,96.10
2019-05-11T06:30:07.123Z,97.80
2019-05-11T06:32:36.168Z,94.90
2019-05-11T06:35:09.253Z,93.70
2019-05-11T06:37:38.292Z,95.00
2019-05-11T06:40:07.868Z,94.30
2019-05-11T06:42:36.920Z,94.20
2019-05-11T06:45:07.286Z,93.80
2019-05-11T06:47:36.894Z,93.90
2019-05-11T06:50:06.367Z,91.60
2019-05-11T06:52:35.548Z,92.40
2019-05-11T06:55:05.416Z,90.60
2019-05-11T06:57:34.469Z,91.60
2019-05-11T07:00:04.251Z,91.50
2019-05-11T07:02:33.306Z,90.90
2019-05-11T07:05:02.345Z,86.10
2019-05-11T07:07:46.093Z,90.40
2019-05-11T07:10:02.161Z,86.80
2019-05-11T07:12:31.208Z,89.80
2019-05-11T07:15:00.255Z,88.60
2019-05-11T07:17:29.296Z,84.70
2019-05-11T07:19:58.331Z,80.10
2019-05-11T07:22:27.445Z,81.90
2019-05-11T07:24:56.552Z,85.10
2019-05-11T07:27:25.605Z,86.40
2019-05-11T07:29:54.657Z,80.00
2019-05-11T07:32:26.114Z,85.30
2019-05-11T07:34:54.730Z,83.70
2019-05-11T07:37:24.454Z,86.80
2019-05-11T07:39:53.678Z,82.30
2019-05-11T07:42:22.708Z,82.20
2019-05-11T07:44:51.751Z,82.10
2019-05-11T07:47:20.786Z,85.00
2019-05-11T07:49:49.828Z,83.70
2019-05-11T07:52:18.868Z,81.40
2019-05-11T07:54:52.625Z,81.10
2019-05-11T07:57:18.801Z,80.90
2019-05-11T08:00:08.153Z,82.20
2019-05-11T08:02:38.671Z,83.90
2019-05-11T08:05:24.731Z,87.50
2019-05-11T08:07:54.136Z,85.20
2019-05-11T08:10:23.188Z,81.90
2019-05-11T08:12:52.221Z,82.40
2019-05-11T08:15:21.257Z,87.10
2019-05-11T08:17:50.289Z,83.30
2019-05-11T08:20:19.409Z,83.10
2019-05-11T08:22:48.485Z,82.90
2019-05-11T08:27:58.952Z,75.90
2019-05-11T08:30:28.238Z,76.50
2019-05-11T08:32:58.238Z,78.70
2019-05-11T08:35:31.051Z,78.80
2019-05-11T08:37:58.539Z,81.10
2019-05-11T08:40:28.853Z,82.20
2019-05-11T08:42:58.407Z,81.70
2019-05-11T08:45:28.155Z,79.50
2019-05-11T08:47:58.071Z,80.80
2019-05-11T08:50:28.062Z,85.20
2019-05-11T08:52:58.138Z,83.90
2019-05-11T08:55:28.983Z,86.20
2019-05-11T08:57:58.660Z,81.40
2019-05-11T09:00:28.470Z,80.60
2019-05-11T09:02:58.381Z,75.40
2019-05-11T09:05:28.177Z,79.30
2019-05-11T09:07:57.904Z,73.30
2019-05-11T09:10:28.211Z,78.00
2019-05-11T09:12:59.064Z,77.80
2019-05-11T09:15:36.436Z,75.90
2019-05-11T09:17:59.201Z,77.90
2019-05-11T09:20:28.630Z,76.40
2019-05-11T09:22:58.915Z,76.90
2019-05-11T09:25:28.267Z,79.50
2019-05-11T09:27:58.687Z,79.40
2019-05-11T09:30:28.785Z,77.80
2019-05-11T09:32:58.285Z,75.10
2019-05-11T09:35:29.251Z,76.60
2019-05-11T09:37:58.794Z,76.00
2019-05-11T09:40:28.460Z,81.10
2019-05-11T09:42:58.538Z,79.90
2019-05-11T09:45:27.935Z,80.50
2019-05-11T09:47:58.725Z,79.80
2019-05-11T09:50:28.610Z,77.30
2019-05-11T09:52:58.212Z,73.90
2019-05-11T09:55:29.103Z,70.10
2019-05-11T09:57:58.198Z,67.30
2019-05-11T10:00:28.239Z,73.50
2019-05-11T10:02:57.802Z,71.40
2019-05-11T10:05:28.591Z,72.70
2019-05-11T10:07:58.951Z,72.00
2019-05-11T10:10:28.907Z,73.70
2019-05-11T10:12:59.044Z,72.00
2019-05-11T10:15:28.624Z,70.60
2019-05-11T10:17:58.833Z,72.60
2019-05-11T10:20:28.778Z,69.50
2019-05-11T10:22:58.113Z,72.30
2019-05-11T10:25:28.755Z,70.70
2019-05-11T10:27:58.152Z,67.10
2019-05-11T10:30:28.038Z,68.60
2019-05-11T10:32:57.854Z,68.30
2019-05-11T10:35:28.812Z,70.70
2019-05-11T10:37:58.402Z,65.20
2019-05-11T10:40:28.301Z,66.90
2019-05-11T10:42:58.954Z,68.60
2019-05-11T10:45:28.601Z,66.60
2019-05-11T10:48:00.964Z,65.70
2019-05-11T10:50:28.845Z,68.90
2019-05-11T10:52:59.055Z,68.30
2019-05-11T10:55:28.361Z,68.00
2019-05-11T10:57:58.061Z,67.10
2019-05-11T11:00:28.244Z,67.70
2019-05-11T11:02:58.159Z,66.40
2019-05-11T11:05:28.017Z,65.80
2019-05-11T11:07:58.899Z,62.40
2019-05-11T11:10:28.763Z,67.20
2019-05-11T11:12:58.405Z,66.10
2019-05-11T11:15:28.800Z,69.20
2019-05-11T11:17:58.136Z,64.80
2019-05-11T11:20:28.012Z,65.20
2019-05-11T11:22:58.393Z,67.80
2019-05-11T11:25:28.377Z,67.00
2019-05-11T11:27:57.899Z,67.20
2019-05-11T11:30:28.570Z,69.70
2019-05-11T11:32:58.716Z,69.60
2019-05-11T11:35:28.073Z,67.60
2019-05-11T11:37:58.501Z,63.90
2019-05-11T11:40:28.320Z,59.90
2019-05-11T11:42:58.076Z,63.30
2019-05-11T11:45:28.842Z,62.70
2019-05-11T11:47:58.196Z,60.60
2019-05-11T11:50:28.346Z,64.40
2019-05-11T11:52:57.880Z,65.70
2019-05-11T11:55:28.960Z,69.10
2019-05-11T11:57:58.829Z,64.90
2019-05-11T12:00:29.001Z,65.60
2019-05-11T12:02:58.232Z,66.10
2019-05-11T12:05:28.276Z,65.50
2019-05-11T12:07:58.109Z,67.80
2019-05-11T12:10:28.671Z,65.40
2019-05-11T12:12:58.196Z,64.20
2019-05-11T12:15:28.304Z,61.60
2019-05-11T12:17:58.723Z,66.10
2019-05-11T12:20:28.671Z,63.10
2019-05-11T12:22:58.204Z,64.20
2019-05-11T12:25:27.972Z,61.60
2019-05-11T12:27:57.857Z,63.80
2019-05-11T12:30:28.526Z,64.70
2019-05-11T12:32:57.851Z,65.60
2019-05-11T12:35:28.391Z,64.90
2019-05-11T12:37:58.746Z,66.10
2019-05-11T12:40:28.414Z,64.80
2019-05-11T12:42:59.061Z,65.70
2019-05-11T12:45:29.588Z,66.00
2019-05-11T12:47:58.848Z,68.30
2019-05-11T12:50:28.632Z,68.90
2019-05-11T12:52:58.866Z,66.70
2019-05-11T12:55:28.607Z,65.90
2019-05-11T12:57:58.131Z,67.30
2019-05-11T13:00:30.958Z,66.30
2019-05-11T13:02:58.689Z,69.20
2019-05-11T13:05:28.524Z,67.30
2019-05-11T13:07:58.653Z,70.20
2019-05-11T13:10:28.336Z,68.60
2019-05-11T13:12:58.158Z,68.50
2019-05-11T13:15:28.146Z,71.10
2019-05-11T13:17:58.152Z,69.60
2019-05-11T13:20:28.727Z,69.30
2019-05-11T13:22:58.709Z,68.00
2019-05-11T13:25:28.350Z,70.30
2019-05-11T13:27:58.083Z,69.00
2019-05-11T13:30:27.933Z,66.70
2019-05-11T13:32:57.964Z,68.40
2019-05-11T13:35:28.523Z,69.80
2019-05-11T13:37:58.492Z,68.30
2019-05-11T13:40:27.855Z,67.50
2019-05-11T13:42:58.221Z,68.10
2019-05-11T13:45:28.364Z,68.30
2019-05-11T13:47:59.313Z,69.80
2019-05-11T13:50:29.675Z,69.20
2019-05-11T13:52:59.041Z,69.50
2019-05-11T13:55:28.525Z,69.50
2019-05-11T13:57:57.938Z,69.20
2019-05-11T14:00:28.790Z,69.50
2019-05-11T14:02:59.755Z,72.50
2019-05-11T14:05:28.936Z,70.40
2019-05-11T14:07:58.703Z,68.00
2019-05-11T14:10:28.387Z,71.90
2019-05-11T14:12:58.245Z,71.20
2019-05-11T14:15:28.065Z,70.40
2019-05-11T14:20:28.939Z,67.40
2019-05-11T14:22:58.471Z,68.00
2019-05-11T14:25:28.085Z,68.50
2019-05-11T14:27:59.369Z,68.10
2019-05-11T14:30:28.246Z,67.90
2019-05-11T14:32:21.219Z,67.80
2019-05-11T14:32:58.111Z,67.60
2019-05-11T14:35:27.990Z,67.30
2019-05-11T14:37:58.825Z,68.80
2019-05-11T14:40:28.235Z,71.30
2019-05-11T14:42:58.055Z,67.90
2019-05-11T14:45:28.852Z,69.70
2019-05-11T14:47:58.365Z,69.90
2019-05-11T14:50:28.110Z,66.70
2019-05-11T14:52:58.064Z,66.10
2019-05-11T14:55:28.963Z,66.40
2019-05-11T14:57:58.246Z,68.40
2019-05-11T15:00:28.950Z,68.10
2019-05-11T15:02:58.536Z,68.50
2019-05-11T15:05:28.359Z,68.50
2019-05-11T15:07:58.147Z,69.20
2019-05-11T15:10:27.898Z,68.50
2019-05-11T15:12:59.033Z,68.90
2019-05-11T15:15:28.075Z,68.30
2019-05-11T15:17:58.239Z,69.60
2019-05-11T15:20:28.477Z,70.30
2019-05-11T15:22:58.190Z,69.50
2019-05-11T15:25:28.941Z,71.10
2019-05-11T15:27:58.524Z,69.20
2019-05-11T15:30:28.705Z,70.90
2019-05-11T15:32:58.593Z,69.70
2019-05-11T15:35:28.577Z,71.60
2019-05-11T15:37:58.234Z,71.60
2019-05-11T15:40:27.968Z,72.90
2019-05-11T15:42:58.591Z,71.80
2019-05-11T15:45:27.949Z,71.90
2019-05-11T15:47:58.974Z,72.70
2019-05-11T15:50:29.065Z,73.20
2019-05-11T15:52:58.718Z,73.80
2019-05-11T15:55:28.015Z,74.60
2019-05-11T15:57:57.146Z,73.40
2019-05-11T16:00:27.527Z,72.40
2019-05-11T16:02:57.811Z,72.80
2019-05-11T16:05:28.493Z,72.30
2019-05-11T16:07:58.853Z,73.60
2019-05-11T16:10:28.518Z,75.00
2019-05-11T16:12:58.554Z,73.00
2019-05-11T16:15:27.945Z,75.00
2019-05-11T16:17:57.768Z,74.50
2019-05-11T16:20:28.547Z,75.60
2019-05-11T16:22:57.888Z,74.60
2019-05-11T16:25:28.031Z,76.80
2019-05-11T16:27:57.238Z,75.70
2019-05-11T16:30:28.528Z,76.40
2019-05-11T16:32:58.065Z,75.80
2019-05-11T16:35:28.028Z,75.70
2019-05-11T16:37:59.247Z,75.80
2019-05-11T16:40:29.541Z,76.60
2019-05-11T16:42:58.921Z,78.00
2019-05-11T16:45:28.364Z,76.70
2019-05-11T16:47:58.945Z,77.80
2019-05-11T16:50:28.325Z,78.80
2019-05-11T16:52:58.526Z,79.00
2019-05-11T16:55:27.728Z,79.70
2019-05-11T16:57:58.800Z,79.50
2019-05-11T17:00:27.507Z,79.10
2019-05-11T17:02:57.732Z,79.40
2019-05-11T17:05:30.481Z,79.70
2019-05-11T17:07:58.762Z,80.10
2019-05-11T17:10:28.376Z,81.10
2019-05-11T17:12:58.108Z,80.70
2019-05-11T17:15:28.825Z,81.20
2019-05-11T17:17:58.772Z,81.30
2019-05-11T17:20:28.158Z,81.20
2019-05-11T17:22:57.206Z,80.90
2019-05-11T17:25:28.626Z,80.70
2019-05-11T17:27:58.776Z,81.50
2019-05-11T17:30:28.096Z,82.10
2019-05-11T17:32:59.177Z,82.50
2019-05-11T17:35:27.964Z,82.10
2019-05-11T17:37:57.013Z,82.50
2019-05-11T17:40:28.338Z,82.90
2019-05-11T17:42:58.532Z,82.90
2019-05-11T17:45:27.568Z,81.60
2019-05-11T17:47:58.301Z,83.10
2019-05-11T17:50:28.164Z,82.20
2019-05-11T17:52:57.548Z,80.40
2019-05-11T17:55:28.678Z,80.90
2019-05-11T17:57:58.275Z,81.80
2019-05-11T18:00:28.346Z,80.60
2019-05-11T18:02:58.360Z,81.60
2019-05-11T18:05:27.674Z,80.30
2019-05-11T18:07:58.018Z,80.80
2019-05-11T18:10:28.352Z,81.20
2019-05-11T18:12:57.873Z,81.10
2019-05-11T18:15:27.091Z,82.40
2019-05-11T18:17:58.629Z,82.40
2019-05-11T18:20:28.600Z,82.80
2019-05-11T18:22:57.841Z,82.80
2019-05-11T18:25:47.990Z,83.00
2019-05-11T18:28:18.169Z,83.80
2019-05-11T18:30:47.963Z,84.40
2019-05-11T18:33:18.841Z,84.60
2019-05-11T18:35:48.064Z,85.20
2019-05-11T18:38:17.819Z,85.30
2019-05-11T18:40:48.635Z,86.30
2019-05-11T18:43:18.870Z,86.30
2019-05-11T18:45:48.859Z,86.30
2019-05-11T18:48:18.572Z,87.00
2019-05-11T18:50:49.081Z,86.70
2019-05-11T18:53:18.807Z,88.10
2019-05-11T18:55:48.608Z,88.50
2019-05-11T18:58:18.645Z,89.00
2019-05-11T19:00:48.760Z,89.30
2019-05-11T19:03:19.330Z,89.60
2019-05-11T19:05:48.605Z,90.20
2019-05-11T19:08:18.932Z,90.60
2019-05-11T19:10:48.775Z,90.70
2019-05-11T19:13:18.169Z,90.90
2019-05-11T19:15:48.713Z,90.90
2019-05-11T19:18:18.033Z,90.90
2019-05-11T19:20:49.319Z,91.30
2019-05-11T19:23:19.200Z,91.40
2019-05-11T19:25:48.460Z,91.90
2019-05-11T19:28:18.647Z,92.00
2019-05-11T19:30:48.839Z,92.10
2019-05-11T19:33:18.978Z,92.20
2019-05-11T19:35:48.350Z,92.50
2019-05-11T19:38:18.963Z,92.40
2019-05-11T19:40:48.511Z,92.70
2019-05-11T19:43:18.620Z,92.40
2019-05-11T19:45:48.715Z,92.30
2019-05-11T19:48:17.901Z,92.40
2019-05-11T19:51:02.713Z,92.60
2019-05-11T19:53:18.766Z,92.20
2019-05-11T19:55:48.026Z,92.30
2019-05-11T19:58:19.248Z,92.70
2019-05-11T20:00:48.851Z,92.60
2019-05-11T20:03:18.375Z,92.60
2019-05-11T20:05:48.505Z,92.60
2019-05-11T20:08:18.416Z,93.00
2019-05-11T20:10:48.657Z,92.90
2019-05-11T20:13:18.371Z,93.20
2019-05-11T20:15:48.524Z,93.00
2019-05-11T20:18:18.345Z,93.80
2019-05-11T20:20:48.147Z,93.20
2019-05-11T20:23:17.346Z,93.40
2019-05-11T20:25:47.765Z,93.40
2019-05-11T20:28:18.174Z,94.00
2019-05-11T20:30:48.281Z,93.80
2019-05-11T20:33:18.915Z,94.30
2019-05-11T20:35:48.775Z,93.80
2019-05-11T20:38:18.772Z,93.70
2019-05-11T20:40:48.554Z,93.40
2019-05-11T20:43:18.562Z,93.90
2019-05-11T20:45:48.627Z,93.40
2019-05-11T20:48:18.508Z,93.50
2019-05-11T20:50:48.367Z,93.40
2019-05-11T20:53:18.206Z,93.40
2019-05-11T20:55:47.826Z,93.60
2019-05-11T20:58:18.809Z,93.70
2019-05-11T21:00:49.004Z,94.00
2019-05-11T21:03:18.353Z,94.30
2019-05-11T21:05:48.278Z,94.60
2019-05-11T21:08:17.857Z,94.20
2019-05-11T21:10:48.972Z,94.40
2019-05-11T21:13:18.056Z,94.70
2019-05-11T21:15:47.829Z,94.10
2019-05-11T21:18:18.441Z,94.30
2019-05-11T21:20:48.367Z,94.90
2019-05-11T21:23:18.565Z,94.60
2019-05-11T21:25:47.832Z,94.70
2019-05-11T21:28:16.856Z,94.60
2019-05-11T21:30:48.142Z,94.70
2019-05-11T21:33:17.931Z,94.60
2019-05-11T21:39:15.000Z,95.50
2019-05-11T21:41:44.101Z,95.40
2019-05-11T21:44:13.155Z,95.50
2019-05-11T21:46:42.273Z,95.50
2019-05-11T21:49:11.306Z,95.70
2019-05-11T21:51:40.343Z,95.60
2019-05-11T21:54:09.378Z,95.60
2019-05-11T21:56:40.878Z,96.10
2019-05-11T21:59:09.289Z,96.00
2019-05-11T22:01:38.640Z,96.10
2019-05-11T22:04:08.468Z,96.30
2019-05-11T22:06:39.205Z,96.30
2019-05-11T22:09:08.975Z,96.40
2019-05-11T22:11:38.269Z,96.60
2019-05-11T22:14:08.240Z,97.20
2019-05-11T22:16:38.656Z,97.10
2019-05-11T22:19:08.952Z,97.00
2019-05-11T22:21:38.156Z,96.80
2019-05-11T22:24:08.684Z,97.00
2019-05-11T22:26:38.046Z,96.80
2019-05-11T22:29:07.862Z,96.90
2019-05-11T22:31:38.257Z,97.00
2019-05-11T22:34:08.943Z,97.10
2019-05-11T22:36:38.703Z,97.00
2019-05-11T22:39:08.799Z,96.90
2019-05-11T22:41:39.636Z,96.70
2019-05-11T22:44:11.041Z,97.10
2019-05-11T22:46:39.459Z,96.90
2019-05-11T22:49:08.593Z,96.90
2019-05-11T22:51:37.814Z,96.50
2019-05-11T22:54:08.049Z,96.70
2019-05-11T22:56:38.028Z,96.90
2019-05-11T22:59:08.279Z,96.20
2019-05-11T23:01:38.066Z,96.70
2019-05-11T23:04:07.211Z,97.00
2019-05-11T23:06:40.254Z,96.80
2019-05-11T23:09:07.920Z,96.40
2019-05-11T23:11:37.947Z,97.00
2019-05-11T23:14:09.840Z,97.00
2019-05-11T23:16:37.873Z,96.90
2019-05-11T23:19:09.483Z,96.90
2019-05-11T23:21:38.801Z,97.00
2019-05-11T23:24:08.111Z,96.70
2019-05-11T23:26:38.634Z,96.70
2019-05-11T23:29:08.244Z,97.10
2019-05-11T23:31:38.329Z,97.40
2019-05-11T23:34:08.345Z,98.10
2019-05-11T23:36:38.254Z,97.80
2019-05-11T23:39:09.137Z,98.10
2019-05-11T23:41:38.320Z,97.90
2019-05-11T23:44:08.914Z,98.30
2019-05-11T23:46:38.613Z,98.10
2019-05-11T23:49:08.774Z,98.10
2019-05-11T23:51:38.747Z,98.40
2019-05-11T23:54:08.132Z,98.40
2019-05-11T23:56:38.662Z,99.00
2019-05-11T23:59:08.391Z,98.60
